createdAt,value
2018-05-03T00:00:39.246Z,7.50
2018-05-03T00:01:40.068Z,11.20
2018-05-03T00:02:39.237Z,10.90
2018-05-03T00:03:39.252Z,12.60
2018-05-03T00:04:39.235Z,13.90
2018-05-03T00:05:39.238Z,8.70
2018-05-03T00:06:39.257Z,8.40
2018-05-03T00:07:39.251Z,7.80
2018-05-03T00:08:39.941Z,9.00
2018-05-03T00:09:39.382Z,8.00
2018-05-03T00:10:39.220Z,8.70
2018-05-03T00:11:39.247Z,11.80
2018-05-03T00:12:39.228Z,12.00
2018-05-03T00:13:39.239Z,8.40
2018-05-03T00:14:39.940Z,8.70
2018-05-03T00:15:39.225Z,8.20
2018-05-03T00:16:39.229Z,9.90
2018-05-03T00:17:39.231Z,9.40
2018-05-03T00:18:39.244Z,8.90
2018-05-03T00:19:39.277Z,8.90
2018-05-03T00:20:39.954Z,10.60
2018-05-03T00:21:40.002Z,12.80
2018-05-03T00:22:39.203Z,9.30
2018-05-03T00:23:39.958Z,10.40
2018-05-03T00:24:39.213Z,8.50
2018-05-03T00:25:39.211Z,9.20
2018-05-03T00:26:39.958Z,9.10
2018-05-03T00:27:39.216Z,8.70
2018-05-03T00:28:39.949Z,8.60
2018-05-03T00:29:39.193Z,11.50
2018-05-03T00:30:39.282Z,9.50
2018-05-03T00:31:39.271Z,9.80
2018-05-03T00:32:40.014Z,9.60
2018-05-03T00:33:39.203Z,11.40
2018-05-03T00:34:39.245Z,12.00
2018-05-03T00:35:39.186Z,9.10
2018-05-03T00:36:39.187Z,8.40
2018-05-03T00:37:39.180Z,8.60
2018-05-03T00:38:39.197Z,8.50
2018-05-03T00:39:39.223Z,10.70
2018-05-03T00:40:39.186Z,8.40
2018-05-03T00:41:39.185Z,9.50
2018-05-03T00:42:39.247Z,9.40
2018-05-03T00:43:39.967Z,9.80
2018-05-03T00:44:39.197Z,9.50
2018-05-03T00:45:39.240Z,11.30
2018-05-03T00:46:39.194Z,8.40
2018-05-03T00:47:39.169Z,10.40
2018-05-03T00:48:39.969Z,10.60
2018-05-03T00:49:39.186Z,9.00
2018-05-03T00:50:40.008Z,10.30
2018-05-03T00:51:40.495Z,8.90
2018-05-03T00:52:39.258Z,11.10
2018-05-03T00:53:39.151Z,10.10
2018-05-03T00:54:39.172Z,10.50
2018-05-03T00:55:39.155Z,8.90
2018-05-03T00:56:39.226Z,8.50
2018-05-03T00:57:40.447Z,14.90
2018-05-03T00:58:39.168Z,9.80
2018-05-03T00:59:39.157Z,10.60
2018-05-03T01:00:39.150Z,9.80
2018-05-03T01:01:39.203Z,9.20
2018-05-03T01:02:39.219Z,12.00
2018-05-03T01:03:39.157Z,9.50
2018-05-03T01:04:39.154Z,8.70
2018-05-03T01:05:39.237Z,8.80
2018-05-03T01:06:40.014Z,9.10
2018-05-03T01:07:39.141Z,9.90
2018-05-03T01:08:39.131Z,9.60
2018-05-03T01:09:39.144Z,8.30
2018-05-03T01:10:39.138Z,8.60
2018-05-03T01:11:41.463Z,10.20
2018-05-03T01:12:39.963Z,10.30
2018-05-03T01:13:39.160Z,8.80
2018-05-03T01:14:39.244Z,9.50
2018-05-03T01:15:39.956Z,11.10
2018-05-03T01:16:40.002Z,9.40
2018-05-03T01:17:39.171Z,9.40
2018-05-03T01:18:40.967Z,11.50
2018-05-03T01:19:39.150Z,8.90
2018-05-03T01:20:39.148Z,9.40
2018-05-03T01:21:39.112Z,8.40
2018-05-03T01:22:39.129Z,10.40
2018-05-03T01:23:39.955Z,9.90
2018-05-03T01:24:39.128Z,10.80
2018-05-03T01:25:39.161Z,10.10
2018-05-03T01:26:39.093Z,10.10
2018-05-03T01:27:39.961Z,15.60
2018-05-03T01:28:39.105Z,10.30
2018-05-03T01:29:39.187Z,12.10
2018-05-03T01:30:40.481Z,9.80
2018-05-03T01:31:41.030Z,8.90
2018-05-03T01:32:39.228Z,13.30
2018-05-03T01:33:39.226Z,9.90
2018-05-03T01:34:39.082Z,9.70
2018-05-03T01:35:39.075Z,9.70
2018-05-03T01:36:39.123Z,9.70
2018-05-03T01:37:39.959Z,13.60
2018-05-03T01:38:39.088Z,10.20
2018-05-03T01:39:39.087Z,10.20
2018-05-03T01:40:39.116Z,13.10
2018-05-03T01:41:39.977Z,10.40
2018-05-03T01:42:39.099Z,11.30
2018-05-03T01:43:39.095Z,12.30
2018-05-03T01:44:39.144Z,13.00
2018-05-03T01:45:39.126Z,11.20
2018-05-03T01:46:39.088Z,12.80
2018-05-03T01:47:39.061Z,11.20
2018-05-03T01:48:39.068Z,10.40
2018-05-03T01:49:39.069Z,13.10
2018-05-03T01:50:39.162Z,11.20
2018-05-03T01:51:40.016Z,11.80
2018-05-03T01:52:39.081Z,11.30
2018-05-03T01:53:39.123Z,12.60
2018-05-03T01:54:39.085Z,16.40
2018-05-03T01:55:39.085Z,14.40
2018-05-03T01:56:39.057Z,13.60
2018-05-03T01:57:39.061Z,12.40
2018-05-03T01:58:39.042Z,14.40
2018-05-03T01:59:39.040Z,13.60
2018-05-03T02:00:40.509Z,11.30
2018-05-03T02:01:39.135Z,10.80
2018-05-03T02:02:41.006Z,11.60
2018-05-03T02:03:39.056Z,12.20
2018-05-03T02:04:39.663Z,12.10
2018-05-03T02:05:39.068Z,11.40
2018-05-03T02:06:39.996Z,11.20
2018-05-03T02:07:39.040Z,12.00
2018-05-03T02:08:40.004Z,14.50
2018-05-03T02:09:39.042Z,15.00
2018-05-03T02:10:39.052Z,13.40
2018-05-03T02:11:39.047Z,12.20
2018-05-03T02:12:40.023Z,11.40
2018-05-03T02:13:39.116Z,10.80
2018-05-03T02:14:41.059Z,12.30
2018-05-03T02:15:39.053Z,12.10
2018-05-03T02:16:39.025Z,12.40
2018-05-03T02:17:39.016Z,12.70
2018-05-03T02:18:39.044Z,12.80
2018-05-03T02:19:39.056Z,13.50
2018-05-03T02:20:39.030Z,12.30
2018-05-03T02:21:39.964Z,12.70
2018-05-03T02:22:39.076Z,11.30
2018-05-03T02:23:39.003Z,17.00
2018-05-03T02:24:39.023Z,17.00
2018-05-03T02:25:38.996Z,14.50
2018-05-03T02:26:39.022Z,13.50
2018-05-03T02:27:39.992Z,14.70
2018-05-03T02:28:38.998Z,12.80
2018-05-03T02:29:39.087Z,13.60
2018-05-03T02:30:39.011Z,12.70
2018-05-03T02:31:39.005Z,14.30
2018-05-03T02:32:38.986Z,16.90
2018-05-03T02:33:40.019Z,13.30
2018-05-03T02:34:38.989Z,14.00
2018-05-03T02:35:39.012Z,19.30
2018-05-03T02:36:38.972Z,15.20
2018-05-03T02:37:38.973Z,17.80
2018-05-03T02:38:39.059Z,15.00
2018-05-03T02:39:38.986Z,13.30
2018-05-03T02:40:39.021Z,16.10
2018-05-03T02:41:38.983Z,13.20
2018-05-03T02:42:38.979Z,13.50
2018-05-03T02:43:39.495Z,12.30
2018-05-03T02:44:38.967Z,13.10
2018-05-03T02:45:38.973Z,11.90
2018-05-03T02:46:38.989Z,10.80
2018-05-03T02:47:39.039Z,14.40
2018-05-03T02:48:38.975Z,13.00
2018-05-03T02:49:38.987Z,11.40
2018-05-03T02:50:39.041Z,11.90
2018-05-03T02:51:39.007Z,11.90
2018-05-03T02:52:39.051Z,11.30
2018-05-03T02:53:38.960Z,11.30
2018-05-03T02:54:38.945Z,11.80
2018-05-03T02:55:38.986Z,12.40
2018-05-03T02:56:38.945Z,15.50
2018-05-03T02:57:38.959Z,11.90
2018-05-03T02:58:39.471Z,13.30
2018-05-03T02:59:38.953Z,11.70
2018-05-03T03:00:38.935Z,11.00
2018-05-03T03:01:38.934Z,10.60
2018-05-03T03:02:39.504Z,13.30
2018-05-03T03:03:39.036Z,12.60
2018-05-03T03:04:38.982Z,11.10
2018-05-03T03:05:39.479Z,10.40
2018-05-03T03:06:38.929Z,12.10
2018-05-03T03:07:38.924Z,11.10
2018-05-03T03:08:40.024Z,12.60
2018-05-03T03:09:38.973Z,15.20
2018-05-03T03:10:40.031Z,13.10
2018-05-03T03:11:38.989Z,14.30
2018-05-03T03:12:39.536Z,14.90
2018-05-03T03:13:38.927Z,13.10
2018-05-03T03:14:38.936Z,12.50
2018-05-03T03:15:39.518Z,15.20
2018-05-03T03:16:38.926Z,14.70
2018-05-03T03:17:38.982Z,12.60
2018-05-03T03:18:38.896Z,14.60
2018-05-03T03:19:40.028Z,14.30
2018-05-03T03:20:38.902Z,13.00
2018-05-03T03:21:40.024Z,12.80
2018-05-03T03:22:38.925Z,13.00
2018-05-03T03:23:38.904Z,14.50
2018-05-03T03:24:38.888Z,14.80
2018-05-03T03:25:38.889Z,13.10
2018-05-03T03:26:38.954Z,13.60
2018-05-03T03:27:38.894Z,12.70
2018-05-03T03:28:38.883Z,12.60
2018-05-03T03:29:38.877Z,11.80
2018-05-03T03:30:39.475Z,13.30
2018-05-03T03:31:38.884Z,10.60
2018-05-03T03:32:38.867Z,12.50
2018-05-03T03:33:38.894Z,13.80
2018-05-03T03:34:38.881Z,12.90
2018-05-03T03:35:38.867Z,13.20
2018-05-03T03:36:38.862Z,13.00
2018-05-03T03:37:38.863Z,12.50
2018-05-03T03:38:38.892Z,12.40
2018-05-03T03:39:38.870Z,13.90
2018-05-03T03:40:38.919Z,14.40
2018-05-03T03:41:38.857Z,15.80
2018-05-03T03:42:38.851Z,12.80
2018-05-03T03:43:39.647Z,12.50
2018-05-03T03:44:38.865Z,12.50
2018-05-03T03:45:38.846Z,14.60
2018-05-03T03:46:38.894Z,13.10
2018-05-03T03:47:38.865Z,13.20
2018-05-03T03:48:38.837Z,15.50
2018-05-03T03:49:38.843Z,14.60
2018-05-03T03:50:38.941Z,12.40
2018-05-03T03:51:39.488Z,13.30
2018-05-03T03:52:38.831Z,12.50
2018-05-03T03:53:38.831Z,13.20
2018-05-03T03:54:38.828Z,12.80
2018-05-03T03:55:38.912Z,13.70
2018-05-03T03:56:38.848Z,17.20
2018-05-03T03:57:39.532Z,13.20
2018-05-03T03:58:38.856Z,15.00
2018-05-03T03:59:38.829Z,15.60
2018-05-03T04:00:38.829Z,18.90
2018-05-03T04:01:38.818Z,14.30
2018-05-03T04:02:38.822Z,14.00
2018-05-03T04:03:38.833Z,15.10
2018-05-03T04:04:38.806Z,13.50
2018-05-03T04:05:38.812Z,15.70
2018-05-03T04:06:38.877Z,19.30
2018-05-03T04:07:39.248Z,13.60
2018-05-03T04:08:38.800Z,16.60
2018-05-03T04:09:39.577Z,15.10
2018-05-03T04:10:39.552Z,15.50
2018-05-03T04:11:38.858Z,15.50
2018-05-03T04:12:38.793Z,16.30
2018-05-03T04:13:38.782Z,14.30
2018-05-03T04:14:38.777Z,14.30
2018-05-03T04:15:38.778Z,15.80
2018-05-03T04:16:38.783Z,17.70
2018-05-03T04:17:38.804Z,17.10
2018-05-03T04:18:38.802Z,16.90
2018-05-03T04:19:38.872Z,18.30
2018-05-03T04:20:38.762Z,15.80
2018-05-03T04:21:38.805Z,18.10
2018-05-03T04:22:38.772Z,15.90
2018-05-03T04:23:38.762Z,16.00
2018-05-03T04:24:38.765Z,16.10
2018-05-03T04:25:38.747Z,20.40
2018-05-03T04:26:39.575Z,17.80
2018-05-03T04:27:38.852Z,18.00
2018-05-03T04:28:41.630Z,18.20
2018-05-03T04:29:38.758Z,17.50
2018-05-03T04:30:38.743Z,17.20
2018-05-03T04:31:38.750Z,19.90
2018-05-03T04:32:38.751Z,16.80
2018-05-03T04:33:38.732Z,20.50
2018-05-03T04:34:38.763Z,18.20
2018-05-03T04:35:38.731Z,18.50
2018-05-03T04:36:38.732Z,17.60
2018-05-03T04:37:38.736Z,19.30
2018-05-03T04:38:39.644Z,27.10
2018-05-03T04:39:38.714Z,17.80
2018-05-03T04:40:38.725Z,18.50
2018-05-03T04:41:38.732Z,15.80
2018-05-03T04:42:38.706Z,18.40
2018-05-03T04:43:38.797Z,17.70
2018-05-03T04:44:38.709Z,18.40
2018-05-03T04:45:38.703Z,18.70
2018-05-03T04:46:40.527Z,18.30
2018-05-03T04:47:38.700Z,18.50
2018-05-03T04:48:38.698Z,19.60
2018-05-03T04:49:38.700Z,18.20
2018-05-03T04:50:38.687Z,18.70
2018-05-03T04:51:39.547Z,19.70
2018-05-03T04:52:39.511Z,18.60
2018-05-03T04:53:38.702Z,19.80
2018-05-03T04:54:39.509Z,22.50
2018-05-03T04:55:38.680Z,19.70
2018-05-03T04:56:38.696Z,17.60
2018-05-03T04:57:38.679Z,19.50
2018-05-03T04:58:39.503Z,17.80
2018-05-03T04:59:39.557Z,17.90
2018-05-03T05:00:39.522Z,17.70
2018-05-03T05:01:38.671Z,17.00
2018-05-03T05:02:38.672Z,15.60
2018-05-03T05:03:38.672Z,14.10
2018-05-03T05:04:38.690Z,14.20
2018-05-03T05:05:38.655Z,26.50
2018-05-03T05:06:40.045Z,16.80
2018-05-03T05:07:38.656Z,14.90
2018-05-03T05:08:38.703Z,14.60
2018-05-03T05:09:39.558Z,15.50
2018-05-03T05:10:39.505Z,16.20
2018-05-03T05:11:38.700Z,15.90
2018-05-03T05:12:40.570Z,20.90
2018-05-03T05:13:39.668Z,14.40
2018-05-03T05:14:38.635Z,14.60
2018-05-03T05:15:38.638Z,15.60
2018-05-03T05:16:38.638Z,14.50
2018-05-03T05:17:39.558Z,14.00
2018-05-03T05:18:38.638Z,14.10
2018-05-03T05:19:39.525Z,16.20
2018-05-03T05:20:38.699Z,14.40
2018-05-03T05:21:38.642Z,20.20
2018-05-03T05:22:38.632Z,14.10
2018-05-03T05:23:39.554Z,16.90
2018-05-03T05:24:39.561Z,17.30
2018-05-03T05:25:38.634Z,17.00
2018-05-03T05:26:38.706Z,17.40
2018-05-03T05:27:38.651Z,19.40
2018-05-03T05:28:38.605Z,21.40
2018-05-03T05:29:38.611Z,16.60
2018-05-03T05:30:38.619Z,22.80
2018-05-03T05:31:38.694Z,18.10
2018-05-03T05:32:38.602Z,18.20
2018-05-03T05:33:39.507Z,21.60
2018-05-03T05:34:39.510Z,26.60
2018-05-03T05:35:38.875Z,22.30
2018-05-03T05:36:38.700Z,24.10
2018-05-03T05:37:38.612Z,31.60
2018-05-03T05:38:38.777Z,22.40
2018-05-03T05:39:38.604Z,27.90
2018-05-03T05:40:38.623Z,36.90
2018-05-03T05:41:38.607Z,28.00
2018-05-03T05:42:38.684Z,21.70
2018-05-03T05:43:38.582Z,18.50
2018-05-03T05:44:39.509Z,21.50
2018-05-03T05:45:38.590Z,22.00
2018-05-03T05:46:38.642Z,20.80
2018-05-03T05:47:38.603Z,20.40
2018-05-03T05:48:38.633Z,25.30
2018-05-03T05:49:38.707Z,18.70
2018-05-03T05:50:40.057Z,18.20
2018-05-03T05:51:38.669Z,22.70
2018-05-03T05:52:38.714Z,20.50
2018-05-03T05:53:38.649Z,23.40
2018-05-03T05:54:38.660Z,20.40
2018-05-03T05:55:39.556Z,18.60
2018-05-03T05:56:38.626Z,21.00
2018-05-03T05:57:38.672Z,23.50
2018-05-03T05:58:38.641Z,22.30
2018-05-03T05:59:38.611Z,20.10
2018-05-03T06:00:39.519Z,17.00
2018-05-03T06:01:38.647Z,17.50
2018-05-03T06:02:38.660Z,17.80
2018-05-03T06:03:38.634Z,19.70
2018-05-03T06:04:38.633Z,19.20
2018-05-03T06:05:38.655Z,18.50
2018-05-03T06:06:38.653Z,21.20
2018-05-03T06:07:39.508Z,18.50
2018-05-03T06:08:38.566Z,20.50
2018-05-03T06:09:38.638Z,21.60
2018-05-03T06:10:38.770Z,22.70
2018-05-03T06:11:38.645Z,18.40
2018-05-03T06:12:40.023Z,18.90
2018-05-03T06:13:39.531Z,20.90
2018-05-03T06:14:40.061Z,19.70
2018-05-03T06:15:40.054Z,19.20
2018-05-03T06:16:38.617Z,20.00
2018-05-03T06:17:38.634Z,15.70
2018-05-03T06:18:39.562Z,18.40
2018-05-03T06:19:40.043Z,15.30
2018-05-03T06:20:39.569Z,23.80
2018-05-03T06:21:39.562Z,19.20
2018-05-03T06:22:40.153Z,31.10
2018-05-03T06:23:38.587Z,18.00
2018-05-03T06:24:38.658Z,16.30
2018-05-03T06:25:39.525Z,23.30
2018-05-03T06:26:40.064Z,22.20
2018-05-03T06:27:40.064Z,27.60
2018-05-03T06:28:39.516Z,20.80
2018-05-03T06:29:42.038Z,17.00
2018-05-03T06:30:40.021Z,17.80
2018-05-03T06:33:11.077Z,15.20
